createdAt,value
2019-02-02T08:00:42.929Z,364.73
2019-02-02T08:03:46.954Z,308.80
2019-02-02T08:06:17.863Z,297.90
2019-02-02T08:08:49.037Z,731.53
2019-02-02T08:11:20.264Z,300.33
2019-02-02T08:13:50.753Z,556.13
2019-02-02T08:16:20.777Z,146.27
2019-02-02T08:18:52.754Z,195.17
2019-02-02T08:21:24.185Z,112.17
2019-02-02T08:23:56.102Z,186.93
2019-02-02T08:26:27.900Z,79.63
2019-02-02T08:28:59.118Z,100.67
2019-02-02T08:31:30.195Z,76.27
2019-02-02T08:34:01.620Z,72.70
2019-02-02T08:36:33.440Z,93.77
2019-02-02T08:39:06.453Z,69.13
2019-02-02T08:41:38.467Z,63.87
2019-02-02T08:44:09.588Z,48.37
2019-02-02T08:46:40.640Z,49.40
2019-02-02T08:49:11.361Z,55.07
2019-02-02T08:51:42.408Z,53.27
2019-02-02T08:54:13.939Z,48.07
2019-02-02T08:56:44.266Z,53.47
2019-02-02T08:59:14.874Z,68.47
2019-02-02T09:01:47.858Z,39.57
2019-02-02T09:04:17.736Z,35.87
2019-02-02T09:06:48.072Z,43.67
2019-02-02T09:09:19.087Z,48.57
2019-02-02T09:11:49.126Z,21.17
2019-02-02T09:14:19.140Z,34.50
2019-02-02T09:16:50.318Z,31.80
2019-02-02T09:19:20.288Z,119.53
2019-02-02T09:21:50.349Z,49.50
2019-02-02T09:24:20.275Z,37.93
2019-02-02T09:26:50.248Z,39.00
2019-02-02T09:29:20.338Z,33.13
2019-02-02T09:31:50.420Z,60.23
2019-02-02T09:34:20.793Z,31.33
2019-02-02T09:36:51.495Z,22.03
2019-02-02T09:39:22.238Z,23.90
2019-02-02T09:41:52.666Z,23.83
2019-02-02T09:44:22.581Z,24.50
2019-02-02T09:46:52.546Z,17.93
2019-02-02T09:49:22.454Z,19.33
2019-02-02T09:51:52.428Z,22.13
2019-02-02T09:54:26.558Z,20.23
2019-02-02T09:56:53.857Z,17.73
2019-02-02T09:59:23.847Z,16.60
2019-02-02T10:01:53.761Z,15.03
2019-02-02T10:04:23.664Z,11.20
2019-02-02T10:06:53.653Z,9.90
2019-02-02T10:09:23.716Z,10.20
2019-02-02T10:11:53.686Z,7.83
2019-02-02T10:14:23.650Z,8.43
2019-02-02T10:16:53.660Z,8.37
2019-02-02T10:19:23.623Z,36.67
2019-02-02T10:21:53.536Z,37.93
2019-02-02T10:24:23.504Z,15.67
2019-02-02T10:26:53.425Z,23.87
2019-02-02T10:29:23.389Z,33.70
2019-02-02T10:31:53.366Z,23.70
2019-02-02T10:34:23.405Z,12.07
2019-02-02T10:36:53.333Z,6.10
2019-02-02T10:39:23.298Z,5.50
2019-02-02T10:41:53.269Z,4.58
2019-02-02T10:44:23.179Z,6.27
2019-02-02T10:46:53.153Z,4.00
2019-02-02T10:49:23.176Z,7.67
2019-02-02T10:51:53.163Z,20.70
2019-02-02T10:54:23.086Z,50.92
2019-02-02T10:56:53.156Z,59.20
2019-02-02T10:59:23.128Z,53.97
2019-02-02T11:01:53.042Z,58.03
2019-02-02T11:04:25.793Z,59.93
2019-02-02T11:06:56.911Z,77.33
2019-02-02T11:09:28.678Z,74.57
2019-02-02T11:11:59.771Z,88.47
2019-02-02T11:14:31.167Z,70.17
2019-02-02T11:17:02.109Z,56.80
2019-02-02T11:19:33.246Z,55.10
2019-02-02T11:22:04.083Z,63.77
2019-02-02T11:24:34.452Z,86.63
2019-02-02T11:27:05.584Z,53.43
2019-02-02T11:29:37.120Z,54.97
2019-02-02T11:32:07.179Z,57.53
2019-02-02T11:34:37.151Z,48.63
2019-02-02T11:37:07.216Z,48.53
2019-02-02T11:39:37.207Z,43.45
2019-02-02T11:42:07.284Z,46.77
2019-02-02T11:44:37.316Z,53.85
2019-02-02T11:47:07.399Z,54.55
2019-02-02T11:49:37.314Z,48.98
2019-02-02T11:52:07.398Z,33.38
2019-02-02T11:54:37.381Z,31.80
2019-02-02T11:57:07.361Z,31.37
2019-02-02T11:59:37.334Z,33.27
2019-02-02T12:02:14.354Z,38.87
2019-02-02T12:04:38.961Z,41.73
2019-02-02T12:07:08.954Z,38.93
2019-02-02T12:09:38.939Z,50.67
2019-02-02T12:12:08.922Z,49.97
2019-02-02T12:14:38.825Z,49.20
2019-02-02T12:17:08.922Z,47.30
2019-02-02T12:19:39.646Z,48.67
2019-02-02T12:22:10.223Z,47.20
2019-02-02T12:24:40.272Z,45.67
2019-02-02T12:27:10.177Z,50.93
2019-02-02T12:29:40.155Z,48.03
2019-02-02T12:32:10.179Z,48.90
2019-02-02T12:34:40.162Z,42.63
2019-02-02T12:37:10.069Z,43.07
2019-02-02T12:39:40.043Z,45.87
2019-02-02T12:42:10.019Z,40.27
2019-02-02T12:44:39.918Z,38.77
2019-02-02T12:47:09.904Z,33.80
2019-02-02T12:49:39.813Z,33.50
2019-02-02T12:52:09.901Z,33.13
2019-02-02T12:54:39.811Z,29.47
2019-02-02T12:57:09.723Z,24.27
2019-02-02T12:59:39.702Z,21.50
2019-02-02T13:02:09.691Z,25.10
2019-02-02T13:04:39.606Z,24.20
2019-02-02T13:07:09.597Z,27.07
2019-02-02T13:09:39.562Z,25.97
2019-02-02T13:12:09.751Z,28.50
2019-02-02T13:14:39.819Z,33.13
2019-02-02T13:17:10.412Z,31.67
2019-02-02T13:19:42.739Z,31.50
2019-02-02T13:22:13.950Z,11.03
2019-02-02T13:24:47.079Z,4.33
2019-02-02T13:27:18.238Z,5.27
2019-02-02T13:29:48.877Z,3.30
2019-02-02T13:32:18.836Z,4.33
2019-02-02T13:34:49.327Z,3.80
2019-02-02T13:37:20.042Z,3.97
2019-02-02T13:39:53.877Z,5.37
2019-02-02T13:42:23.842Z,4.43
2019-02-02T13:44:55.484Z,6.00
2019-02-02T13:47:26.482Z,5.07
2019-02-02T13:49:56.677Z,4.70
2019-02-02T13:52:28.123Z,6.20
2019-02-02T13:54:59.187Z,8.03
2019-02-02T13:57:29.985Z,4.10
2019-02-02T14:00:00.052Z,4.87
2019-02-02T14:02:31.044Z,4.30
2019-02-02T14:05:02.514Z,4.57
2019-02-02T14:07:32.491Z,4.33
2019-02-02T14:10:02.445Z,3.23
2019-02-02T14:12:32.685Z,4.70
2019-02-02T14:15:02.651Z,3.93
2019-02-02T14:17:33.724Z,3.97
2019-02-02T14:20:04.495Z,6.67
2019-02-02T14:22:35.069Z,4.07
2019-02-02T14:25:07.970Z,4.57
2019-02-02T14:27:39.713Z,4.73
2019-02-02T14:30:19.545Z,4.67
2019-02-02T14:32:54.585Z,3.90
2019-02-02T14:35:26.599Z,7.60
2019-02-02T14:37:57.290Z,4.33
2019-02-02T14:40:27.218Z,5.17
2019-02-02T14:42:57.216Z,5.30
2019-02-02T14:45:28.051Z,4.90
2019-02-02T14:47:59.584Z,6.50
2019-02-02T14:50:32.089Z,4.40
2019-02-02T14:53:05.087Z,5.27
2019-02-02T14:55:36.051Z,6.77
2019-02-02T14:58:12.529Z,5.03
2019-02-02T15:00:42.871Z,5.43
2019-02-02T15:03:25.611Z,5.70
2019-02-02T15:05:47.083Z,4.37
2019-02-02T15:08:18.626Z,3.13
2019-02-02T15:10:49.042Z,4.80
2019-02-02T15:13:19.051Z,5.17
2019-02-02T15:15:49.028Z,5.43
2019-02-02T15:18:20.132Z,5.50
2019-02-02T15:20:50.127Z,4.53
2019-02-02T15:23:20.033Z,3.70
2019-02-02T15:38:45.333Z,3.87
2019-02-02T15:41:35.291Z,3.50
2019-02-02T15:53:13.492Z,4.33
2019-02-02T15:55:43.467Z,3.77
2019-02-02T15:58:18.210Z,4.03
2019-02-02T16:00:48.115Z,4.80
2019-02-02T16:03:18.091Z,4.27
2019-02-02T16:05:48.006Z,3.10
2019-02-02T16:08:17.981Z,4.87
2019-02-02T16:10:48.151Z,4.73
2019-02-02T16:13:18.118Z,4.77
2019-02-02T16:15:48.094Z,4.90
2019-02-02T16:18:18.004Z,3.80
2019-02-02T16:20:47.971Z,5.43
2019-02-02T16:23:17.948Z,4.37
2019-02-02T16:25:47.948Z,4.10
2019-02-02T16:28:18.143Z,4.57
2019-02-02T16:30:48.080Z,5.03
2019-02-02T16:33:18.092Z,4.23
2019-02-02T16:35:48.103Z,3.57
2019-02-02T16:38:18.165Z,3.97
2019-02-02T16:40:49.735Z,5.47
2019-02-02T16:43:19.820Z,4.60
2019-02-02T16:45:49.717Z,5.20
2019-02-02T16:48:19.792Z,5.93
2019-02-02T16:50:49.871Z,4.33
2019-02-02T16:53:27.127Z,6.47
2019-02-02T16:55:59.417Z,5.33
2019-02-02T16:58:29.383Z,7.97
2019-02-02T17:00:59.352Z,4.73
2019-02-02T17:03:29.315Z,5.83
2019-02-02T17:05:59.283Z,5.67
2019-02-02T17:08:29.292Z,5.13
2019-02-02T17:10:59.263Z,5.67
2019-02-02T17:13:29.236Z,6.73
2019-02-02T17:15:59.211Z,7.03
2019-02-02T17:18:29.106Z,4.17
2019-02-02T17:20:59.068Z,6.53
2019-02-02T17:23:28.968Z,6.23
2019-02-02T17:25:58.990Z,6.47
2019-02-02T17:28:29.004Z,5.70
2019-02-02T17:30:59.003Z,6.93
2019-02-02T17:33:28.993Z,8.17
2019-02-02T17:35:58.971Z,8.00
2019-02-02T17:38:28.877Z,5.77
2019-02-02T17:40:58.802Z,6.17
2019-02-02T17:43:28.825Z,6.80
2019-02-02T17:45:58.886Z,6.67
2019-02-02T17:48:28.851Z,6.33
2019-02-02T17:50:58.754Z,6.27
2019-02-02T17:53:28.728Z,6.77
2019-02-02T17:55:58.688Z,8.57
2019-02-02T17:58:38.944Z,7.93
2019-02-02T18:01:00.314Z,10.20
2019-02-02T18:03:30.228Z,12.27
2019-02-02T18:06:00.207Z,10.90
2019-02-02T18:08:30.128Z,13.50
2019-02-02T18:11:00.109Z,7.97
2019-02-02T18:13:30.004Z,10.93
2019-02-02T18:16:00.083Z,7.67
2019-02-02T18:18:30.000Z,10.77
2019-02-02T18:20:59.964Z,8.67
2019-02-02T18:27:15.349Z,8.07
2019-02-02T18:29:45.283Z,8.53
2019-02-02T18:32:15.255Z,7.33
2019-02-02T18:34:51.177Z,6.73
2019-02-02T18:37:16.812Z,6.73
2019-02-02T18:39:46.720Z,6.10
2019-02-02T18:42:16.685Z,6.73
2019-02-02T18:44:46.659Z,6.93
2019-02-02T18:47:16.626Z,6.13
2019-02-02T18:49:46.751Z,5.97
2019-02-02T18:52:16.710Z,6.17
2019-02-02T18:54:46.668Z,5.93
2019-02-02T18:57:16.653Z,6.00
2019-02-02T18:59:46.648Z,5.33
2019-02-02T19:02:16.625Z,7.00
2019-02-02T19:04:46.539Z,6.33
2019-02-02T19:07:16.513Z,6.23
2019-02-02T19:09:46.476Z,4.40
2019-02-02T19:12:16.453Z,5.73
2019-02-02T19:14:46.460Z,5.70
2019-02-02T19:17:16.435Z,9.07
2019-02-02T19:19:46.333Z,5.60
2019-02-02T19:22:16.297Z,5.97
2019-02-02T19:24:47.755Z,6.20
2019-02-02T19:27:17.718Z,6.80
2019-02-02T19:29:47.696Z,4.77
2019-02-02T19:32:17.666Z,5.83
2019-02-02T19:34:47.599Z,5.87
2019-02-02T19:37:17.563Z,6.80
2019-02-02T19:39:47.677Z,6.73
2019-02-02T19:42:18.770Z,6.40
2019-02-02T19:44:48.731Z,6.23
2019-02-02T19:47:18.640Z,6.10
2019-02-02T19:49:48.612Z,6.47
2019-02-02T19:52:20.121Z,7.60
2019-02-02T19:54:50.104Z,7.00
2019-02-02T19:57:19.995Z,7.23
2019-02-02T19:59:49.962Z,7.17
2019-02-02T20:02:19.866Z,5.77
2019-02-02T20:04:49.873Z,5.77
2019-02-02T20:07:19.771Z,5.73
2019-02-02T20:09:49.846Z,4.10
2019-02-02T20:12:19.748Z,4.73
2019-02-02T20:14:49.719Z,3.87
2019-02-02T20:17:19.632Z,3.23
2019-02-02T20:19:49.592Z,5.50
2019-02-02T20:22:22.456Z,3.57
2019-02-02T20:24:52.424Z,2.67
2019-02-02T20:27:22.327Z,3.40
2019-02-02T20:29:52.319Z,4.13
2019-02-02T20:32:22.275Z,2.23
2019-02-02T20:34:53.269Z,5.83
2019-02-02T20:37:23.179Z,3.03
2019-02-02T20:39:53.148Z,2.80
2019-02-02T20:42:23.110Z,2.33
2019-02-02T20:44:53.016Z,3.83
2019-02-02T20:47:22.991Z,4.20
2019-02-02T20:49:53.676Z,5.37
2019-02-02T20:52:23.574Z,5.43
2019-02-02T20:54:53.651Z,7.13
2019-02-02T20:57:23.546Z,8.77
2019-02-02T20:59:53.516Z,6.03
2019-02-02T21:02:24.492Z,6.83
2019-02-02T21:04:54.575Z,6.80
2019-02-02T21:07:24.479Z,6.70
2019-02-02T21:09:54.447Z,6.33
2019-02-02T21:12:24.408Z,7.10
2019-02-02T21:14:55.210Z,6.50
2019-02-02T21:17:25.287Z,7.17
2019-02-02T21:19:55.282Z,6.97
2019-02-02T21:22:25.470Z,6.57
2019-02-02T21:24:55.586Z,4.50
2019-02-02T21:27:27.690Z,6.03
2019-02-02T21:29:57.634Z,6.53
2019-02-02T21:32:27.725Z,6.53
2019-02-02T21:34:57.726Z,5.70
2019-02-02T21:37:27.821Z,5.77
2019-02-02T21:39:58.102Z,7.43
2019-02-02T21:42:28.173Z,5.13
2019-02-02T21:44:58.150Z,6.50
2019-02-02T21:47:28.231Z,8.07
2019-02-02T21:49:58.313Z,7.03
2019-02-02T21:52:28.836Z,8.27
2019-02-02T21:54:58.806Z,5.80
2019-02-02T21:57:28.779Z,7.30
2019-02-02T22:00:00.608Z,7.07
2019-02-02T22:02:32.195Z,7.00
2019-02-02T22:05:05.633Z,6.40
2019-02-02T22:07:35.712Z,6.93
2019-02-02T22:10:11.138Z,7.77
2019-02-02T22:12:41.308Z,7.73
2019-02-02T22:15:22.546Z,6.63
2019-02-02T22:17:52.654Z,6.47
2019-02-02T22:20:22.962Z,4.97
2019-02-02T22:22:53.175Z,5.90
2019-02-02T22:25:27.884Z,6.70
2019-02-02T22:27:57.999Z,6.17
2019-02-02T22:30:33.669Z,5.67
2019-02-02T22:33:03.777Z,5.93
2019-02-02T22:35:33.752Z,6.53
2019-02-02T22:38:04.024Z,5.37
2019-02-02T22:40:34.106Z,5.53
2019-02-02T22:43:04.209Z,6.90
2019-02-02T22:45:34.209Z,5.10
2019-02-02T22:48:06.317Z,4.57
2019-02-02T22:50:36.489Z,4.70
2019-02-02T22:53:06.667Z,5.63
2019-02-02T22:55:36.680Z,5.33
2019-02-02T22:58:06.903Z,4.23
2019-02-02T23:03:50.553Z,4.60
2019-02-02T23:06:46.843Z,6.03
2019-02-02T23:10:11.382Z,5.30
2019-02-02T23:12:47.247Z,6.97
2019-02-02T23:15:27.142Z,6.83
2019-02-02T23:17:57.122Z,4.50
2019-02-02T23:20:27.024Z,4.47
2019-02-02T23:22:57.009Z,4.83
2019-02-02T23:25:27.102Z,4.87
2019-02-02T23:27:57.583Z,5.40
2019-02-02T23:30:27.656Z,6.00
2019-02-02T23:32:57.600Z,4.77
2019-02-02T23:35:27.689Z,5.00
2019-02-02T23:37:57.758Z,5.53
2019-02-02T23:40:27.769Z,6.50
2019-02-02T23:42:57.836Z,5.33
2019-02-02T23:45:27.853Z,5.87
2019-02-02T23:47:57.820Z,5.77
2019-02-02T23:50:29.025Z,5.00
2019-02-02T23:52:59.102Z,5.63
2019-02-02T23:55:29.012Z,5.37
2019-02-02T23:57:58.988Z,5.00
